In Rescue
 
Open Full Screen Window  High Contrast Mode
Wind Gusting 00 knots
04
March 29, 2020 7:12 PM CDT
Weather Information
Wind Direction
  330 °
Wind Speed
  04 kt (5 mph)
Wind Gust
  00 kt (0 mph)
Altimeter
29.94 in
Visibility
10 SM
Temperature
09° C
48° F
Dewpoint
00° C
32° F
Humidity
54%
1hr Rain Fall
00.00 in.
24hr Rain Fall
00.34 in.
Sky Condition
Clear
VFR

METAR KSGS 300012Z AUTO 33004KT 10SM CLR 09/00 A2994 RMK AO2 T00860000

FAA Disclaimer: The data displayed is for advisory purposes only and is not to be used for flight planning or operations.